Wilmington, OH

10:24 AM EST on December 28, 2014 (GMT -0500)
Spring Valley Township | Change Station
CLOSE
Current Station
Personal Weather Station
Location: Spring Valley, OH
Elevation: 896 ft
Nearby Weather Stations

Elev 896 ft 39.60 °N, 83.97 °W | Updated 4 minutes ago

Overcast
Overcast
33.5 °F
Feels Like 34 °F
N
1.0
Wind Variable Wind from NW
Gusts 3.0 mph

Today
High -- | Low -- °F
--% Chance of Precip.
Yesterday
High -- | Low -- °F
Precip. -- in
7:54 AM 5:19 PM
Waxing Crescent, 48% visible
Pressure 30.14 in
Visibility 4.0 miles
Clouds Overcast 800 ft
Windchill 34 °F
Dew Point 32 °F
Humidity 93%
Rainfall 0.09 in
Snow Depth Not available.
UV 0.7 out of 12
Pollen .10 out of 12
Air Quality Not available.
Flu Activity Not available.
SPECI KILN 281514Z AUTO 33009KT 4SM BR OVC008 01/M01 A3014 RMK AO2 CIG 005V011 T00061011

More Conditions Fewer Conditions

Pressure 30.14 in
Visibility 4.0 miles
Clouds Overcast 800 ft
Windchill 34 °F
Dew Point 32 °F
Humidity 93%
Rainfall 0.09 in
Snow Depth Not available.
UV 0.7 out of 12
Pollen .10 out of 12
Air Quality Not available.
Flu Activity Not available.
SPECI KILN 281514Z AUTO 33009KT 4SM BR OVC008 01/M01 A3014 RMK AO2 CIG 005V011 T00061011

More Conditions Fewer Conditions

10-Day Weather Forecast

Almanac

Astronomy

Dec. 28, 2014 Rise Set
Actual Time
Civil Twilight
Nautical Twilight
Astronomical Twilight
Moon
Length of Visible Light
Length of Day
Tomorrow will be .
, % of the Moon is Illuminated

Today's Extremes

State Highs State Lows

Community

WunderPhotos

Upload Photos

1,781,305 photos uploaded!

WunderBlogs® & News

Nearby

Air Quality

  Air Quality AQ Index Pollutant
Not available.

Snow Depth

Station Depth Elevation

Earthquake Activity

City Distance Mag. Time & Date
Minimum magnitude displayed is 2.5.

Coastal Water Temperatures

Place Temperature

Nearby Weather Stations